sensor_id;sensor_type;location;lat;lon;timestamp;P1;durP1;ratioP1;P2;durP2;ratioP2
10126;SDS011;13080;42.608;23.362;2022-09-03T00:00:53;8.70;;;5.20;;
10126;SDS011;13080;42.608;23.362;2022-09-03T00:03:23;6.17;;;5.07;;
10126;SDS011;13080;42.608;23.362;2022-09-03T00:05:54;6.93;;;4.90;;
10126;SDS011;13080;42.608;23.362;2022-09-03T00:08:22;7.03;;;5.40;;
10126;SDS011;13080;42.608;23.362;2022-09-03T00:10:53;7.87;;;5.00;;
10126;SDS011;13080;42.608;23.362;2022-09-03T00:13:22;8.83;;;5.17;;
10126;SDS011;13080;42.608;23.362;2022-09-03T00:15:49;7.50;;;5.13;;
10126;SDS011;13080;42.608;23.362;2022-09-03T00:18:18;7.17;;;5.40;;
10126;SDS011;13080;42.608;23.362;2022-09-03T00:20:48;9.00;;;5.70;;
10126;SDS011;13080;42.608;23.362;2022-09-03T00:23:18;5.17;;;4.67;;
10126;SDS011;13080;42.608;23.362;2022-09-03T00:25:46;6.70;;;4.90;;
10126;SDS011;13080;42.608;23.362;2022-09-03T00:28:16;10.47;;;5.10;;
10126;SDS011;13080;42.608;23.362;2022-09-03T00:30:44;6.80;;;5.37;;
10126;SDS011;13080;42.608;23.362;2022-09-03T00:33:12;7.00;;;5.10;;
10126;SDS011;13080;42.608;23.362;2022-09-03T00:35:44;7.53;;;5.03;;
10126;SDS011;13080;42.608;23.362;2022-09-03T00:38:13;9.93;;;5.27;;
10126;SDS011;13080;42.608;23.362;2022-09-03T00:40:44;5.63;;;5.03;;
10126;SDS011;13080;42.608;23.362;2022-09-03T00:43:15;8.07;;;4.50;;
10126;SDS011;13080;42.608;23.362;2022-09-03T00:45:46;8.07;;;4.60;;
10126;SDS011;13080;42.608;23.362;2022-09-03T00:48:15;7.30;;;5.90;;
10126;SDS011;13080;42.608;23.362;2022-09-03T00:50:45;6.73;;;5.20;;
10126;SDS011;13080;42.608;23.362;2022-09-03T00:53:16;10.13;;;4.93;;
10126;SDS011;13080;42.608;23.362;2022-09-03T00:55:47;6.43;;;5.13;;
10126;SDS011;13080;42.608;23.362;2022-09-03T00:58:28;6.60;;;5.23;;
10126;SDS011;13080;42.608;23.362;2022-09-03T01:00:58;7.07;;;4.63;;
10126;SDS011;13080;42.608;23.362;2022-09-03T01:03:27;7.17;;;5.10;;
10126;SDS011;13080;42.608;23.362;2022-09-03T01:06:02;9.00;;;5.03;;
10126;SDS011;13080;42.608;23.362;2022-09-03T01:08:34;7.77;;;5.50;;
10126;SDS011;13080;42.608;23.362;2022-09-03T01:11:09;8.70;;;5.30;;
10126;SDS011;13080;42.608;23.362;2022-09-03T01:13:38;8.87;;;5.13;;
10126;SDS011;13080;42.608;23.362;2022-09-03T01:16:08;9.40;;;5.27;;
10126;SDS011;13080;42.608;23.362;2022-09-03T01:18:38;8.87;;;5.17;;
10126;SDS011;13080;42.608;23.362;2022-09-03T01:21:12;6.27;;;5.40;;
10126;SDS011;13080;42.608;23.362;2022-09-03T01:23:50;7.27;;;5.30;;
10126;SDS011;13080;42.608;23.362;2022-09-03T01:29:13;10.30;;;5.67;;
10126;SDS011;13080;42.608;23.362;2022-09-03T01:31:45;8.83;;;6.03;;
10126;SDS011;13080;42.608;23.362;2022-09-03T01:34:19;6.30;;;5.57;;
10126;SDS011;13080;42.608;23.362;2022-09-03T01:36:49;7.33;;;5.87;;
10126;SDS011;13080;42.608;23.362;2022-09-03T01:39:17;10.30;;;5.50;;
10126;SDS011;13080;42.608;23.362;2022-09-03T01:41:51;8.97;;;6.20;;
10126;SDS011;13080;42.608;23.362;2022-09-03T01:44:41;7.40;;;5.60;;
10126;SDS011;13080;42.608;23.362;2022-09-03T01:47:15;7.87;;;5.90;;
10126;SDS011;13080;42.608;23.362;2022-09-03T01:49:47;9.93;;;6.50;;
10126;SDS011;13080;42.608;23.362;2022-09-03T01:52:24;6.87;;;5.63;;
10126;SDS011;13080;42.608;23.362;2022-09-03T01:54:59;8.43;;;6.07;;
10126;SDS011;13080;42.608;23.362;2022-09-03T01:57:34;7.60;;;5.57;;
10126;SDS011;13080;42.608;23.362;2022-09-03T02:00:07;7.57;;;5.83;;
10126;SDS011;13080;42.608;23.362;2022-09-03T02:02:34;18.07;;;6.13;;
10126;SDS011;13080;42.608;23.362;2022-09-03T02:05:02;6.90;;;5.77;;
10126;SDS011;13080;42.608;23.362;2022-09-03T02:07:34;6.10;;;5.50;;
10126;SDS011;13080;42.608;23.362;2022-09-03T02:10:02;7.57;;;5.30;;
10126;SDS011;13080;42.608;23.362;2022-09-03T02:12:29;6.67;;;5.40;;
10126;SDS011;13080;42.608;23.362;2022-09-03T02:14:58;6.77;;;5.50;;
10126;SDS011;13080;42.608;23.362;2022-09-03T02:17:26;7.97;;;5.53;;
10126;SDS011;13080;42.608;23.362;2022-09-03T02:19:52;9.07;;;5.40;;
10126;SDS011;13080;42.608;23.362;2022-09-03T02:22:19;8.87;;;5.33;;
10126;SDS011;13080;42.608;23.362;2022-09-03T02:24:46;5.13;;;4.63;;
10126;SDS011;13080;42.608;23.362;2022-09-03T02:27:12;6.33;;;5.00;;
10126;SDS011;13080;42.608;23.362;2022-09-03T02:29:39;8.37;;;5.10;;
10126;SDS011;13080;42.608;23.362;2022-09-03T02:32:06;7.27;;;5.70;;
10126;SDS011;13080;42.608;23.362;2022-09-03T02:34:33;8.30;;;5.27;;
10126;SDS011;13080;42.608;23.362;2022-09-03T02:37:00;6.03;;;5.03;;
10126;SDS011;13080;42.608;23.362;2022-09-03T02:39:37;10.00;;;5.60;;
10126;SDS011;13080;42.608;23.362;2022-09-03T02:42:03;8.23;;;4.43;;
10126;SDS011;13080;42.608;23.362;2022-09-03T02:44:30;7.83;;;4.60;;
10126;SDS011;13080;42.608;23.362;2022-09-03T02:46:58;9.67;;;5.20;;
10126;SDS011;13080;42.608;23.362;2022-09-03T02:49:26;6.83;;;5.07;;
10126;SDS011;13080;42.608;23.362;2022-09-03T02:51:57;5.50;;;4.70;;
10126;SDS011;13080;42.608;23.362;2022-09-03T02:54:25;5.23;;;4.73;;
10126;SDS011;13080;42.608;23.362;2022-09-03T02:56:51;5.27;;;4.77;;
10126;SDS011;13080;42.608;23.362;2022-09-03T02:59:18;7.43;;;5.50;;
10126;SDS011;13080;42.608;23.362;2022-09-03T03:01:47;6.20;;;4.50;;
10126;SDS011;13080;42.608;23.362;2022-09-03T03:04:13;8.23;;;5.07;;
10126;SDS011;13080;42.608;23.362;2022-09-03T03:06:40;7.87;;;4.80;;
10126;SDS011;13080;42.608;23.362;2022-09-03T03:09:08;7.60;;;5.47;;
10126;SDS011;13080;42.608;23.362;2022-09-03T03:11:34;5.47;;;4.93;;
10126;SDS011;13080;42.608;23.362;2022-09-03T03:14:01;11.00;;;5.50;;
10126;SDS011;13080;42.608;23.362;2022-09-03T03:16:28;9.57;;;5.23;;
10126;SDS011;13080;42.608;23.362;2022-09-03T03:18:54;6.80;;;5.63;;
10126;SDS011;13080;42.608;23.362;2022-09-03T03:21:21;5.50;;;4.97;;
10126;SDS011;13080;42.608;23.362;2022-09-03T03:23:48;8.23;;;5.73;;
10126;SDS011;13080;42.608;23.362;2022-09-03T03:26:17;6.67;;;5.60;;
10126;SDS011;13080;42.608;23.362;2022-09-03T03:28:44;7.43;;;5.80;;
10126;SDS011;13080;42.608;23.362;2022-09-03T03:31:13;9.67;;;6.00;;
10126;SDS011;13080;42.608;23.362;2022-09-03T03:33:39;7.77;;;5.53;;
10126;SDS011;13080;42.608;23.362;2022-09-03T03:36:06;16.37;;;6.20;;
10126;SDS011;13080;42.608;23.362;2022-09-03T03:38:33;10.33;;;6.10;;
10126;SDS011;13080;42.608;23.362;2022-09-03T03:41:05;8.70;;;5.83;;
10126;SDS011;13080;42.608;23.362;2022-09-03T03:43:33;8.43;;;6.83;;
10126;SDS011;13080;42.608;23.362;2022-09-03T03:45:59;7.93;;;6.10;;
10126;SDS011;13080;42.608;23.362;2022-09-03T03:48:26;8.87;;;6.50;;
10126;SDS011;13080;42.608;23.362;2022-09-03T03:50:52;7.87;;;6.87;;
10126;SDS011;13080;42.608;23.362;2022-09-03T03:53:19;10.17;;;6.87;;
10126;SDS011;13080;42.608;23.362;2022-09-03T03:55:52;18.63;;;7.17;;
10126;SDS011;13080;42.608;23.362;2022-09-03T03:58:19;13.13;;;6.90;;
10126;SDS011;13080;42.608;23.362;2022-09-03T04:00:47;9.67;;;7.30;;
10126;SDS011;13080;42.608;23.362;2022-09-03T04:03:14;9.63;;;6.87;;
10126;SDS011;13080;42.608;23.362;2022-09-03T04:05:40;9.67;;;6.93;;
10126;SDS011;13080;42.608;23.362;2022-09-03T04:08:07;11.27;;;6.60;;
10126;SDS011;13080;42.608;23.362;2022-09-03T04:10:34;8.43;;;5.93;;
10126;SDS011;13080;42.608;23.362;2022-09-03T04:13:01;9.87;;;6.60;;
10126;SDS011;13080;42.608;23.362;2022-09-03T04:15:27;8.47;;;6.20;;
10126;SDS011;13080;42.608;23.362;2022-09-03T04:17:55;11.83;;;6.73;;
10126;SDS011;13080;42.608;23.362;2022-09-03T04:20:21;10.10;;;5.90;;
10126;SDS011;13080;42.608;23.362;2022-09-03T04:22:48;11.87;;;7.27;;
10126;SDS011;13080;42.608;23.362;2022-09-03T04:25:14;14.17;;;6.80;;
10126;SDS011;13080;42.608;23.362;2022-09-03T04:27:41;10.00;;;6.70;;
10126;SDS011;13080;42.608;23.362;2022-09-03T04:30:08;9.03;;;6.90;;
10126;SDS011;13080;42.608;23.362;2022-09-03T04:32:35;11.30;;;6.73;;
10126;SDS011;13080;42.608;23.362;2022-09-03T04:35:21;11.00;;;6.63;;
10126;SDS011;13080;42.608;23.362;2022-09-03T04:37:48;8.57;;;6.67;;
10126;SDS011;13080;42.608;23.362;2022-09-03T04:40:15;10.90;;;6.43;;
10126;SDS011;13080;42.608;23.362;2022-09-03T04:42:42;7.47;;;6.10;;
10126;SDS011;13080;42.608;23.362;2022-09-03T04:45:09;8.67;;;5.60;;
10126;SDS011;13080;42.608;23.362;2022-09-03T04:47:36;13.10;;;5.83;;
10126;SDS011;13080;42.608;23.362;2022-09-03T04:50:03;7.87;;;5.63;;
10126;SDS011;13080;42.608;23.362;2022-09-03T04:52:30;5.97;;;5.03;;
10126;SDS011;13080;42.608;23.362;2022-09-03T04:54:57;9.97;;;5.70;;
10126;SDS011;13080;42.608;23.362;2022-09-03T04:57:24;8.97;;;5.23;;
10126;SDS011;13080;42.608;23.362;2022-09-03T04:59:51;7.37;;;5.57;;
10126;SDS011;13080;42.608;23.362;2022-09-03T05:02:18;7.50;;;5.90;;
10126;SDS011;13080;42.608;23.362;2022-09-03T05:04:45;8.30;;;5.47;;
10126;SDS011;13080;42.608;23.362;2022-09-03T05:07:12;7.40;;;5.27;;
10126;SDS011;13080;42.608;23.362;2022-09-03T05:09:40;6.20;;;5.60;;
10126;SDS011;13080;42.608;23.362;2022-09-03T05:12:06;7.10;;;5.87;;
10126;SDS011;13080;42.608;23.362;2022-09-03T05:14:33;6.33;;;5.40;;
10126;SDS011;13080;42.608;23.362;2022-09-03T05:16:59;8.37;;;5.83;;
10126;SDS011;13080;42.608;23.362;2022-09-03T05:19:26;7.67;;;6.60;;
10126;SDS011;13080;42.608;23.362;2022-09-03T05:21:52;5.80;;;5.20;;
10126;SDS011;13080;42.608;23.362;2022-09-03T05:24:19;6.00;;;5.10;;
10126;SDS011;13080;42.608;23.362;2022-09-03T05:26:47;6.80;;;4.77;;
10126;SDS011;13080;42.608;23.362;2022-09-03T05:29:14;9.10;;;4.77;;
10126;SDS011;13080;42.608;23.362;2022-09-03T05:31:40;4.87;;;4.27;;
10126;SDS011;13080;42.608;23.362;2022-09-03T05:34:07;8.00;;;5.40;;
10126;SDS011;13080;42.608;23.362;2022-09-03T05:36:34;5.50;;;4.90;;
10126;SDS011;13080;42.608;23.362;2022-09-03T05:39:01;6.37;;;4.97;;
10126;SDS011;13080;42.608;23.362;2022-09-03T05:41:28;7.37;;;5.67;;
10126;SDS011;13080;42.608;23.362;2022-09-03T05:43:59;6.17;;;5.20;;
10126;SDS011;13080;42.608;23.362;2022-09-03T05:46:26;6.10;;;5.40;;
10126;SDS011;13080;42.608;23.362;2022-09-03T05:48:56;7.80;;;5.30;;
10126;SDS011;13080;42.608;23.362;2022-09-03T05:51:22;6.17;;;4.60;;
10126;SDS011;13080;42.608;23.362;2022-09-03T05:53:48;4.90;;;4.40;;
10126;SDS011;13080;42.608;23.362;2022-09-03T05:56:15;7.13;;;4.27;;
10126;SDS011;13080;42.608;23.362;2022-09-03T05:58:43;4.73;;;4.23;;
10126;SDS011;13080;42.608;23.362;2022-09-03T06:01:12;4.23;;;3.70;;
10126;SDS011;13080;42.608;23.362;2022-09-03T06:03:39;6.80;;;4.00;;
10126;SDS011;13080;42.608;23.362;2022-09-03T06:06:06;5.70;;;4.30;;
10126;SDS011;13080;42.608;23.362;2022-09-03T06:08:33;5.23;;;3.70;;
10126;SDS011;13080;42.608;23.362;2022-09-03T06:11:00;3.97;;;3.60;;
10126;SDS011;13080;42.608;23.362;2022-09-03T06:13:28;4.53;;;3.47;;
10126;SDS011;13080;42.608;23.362;2022-09-03T06:15:55;4.60;;;3.53;;
10126;SDS011;13080;42.608;23.362;2022-09-03T06:18:23;5.80;;;3.83;;
10126;SDS011;13080;42.608;23.362;2022-09-03T06:20:52;4.13;;;3.73;;
10126;SDS011;13080;42.608;23.362;2022-09-03T06:23:19;5.47;;;4.07;;
10126;SDS011;13080;42.608;23.362;2022-09-03T06:25:45;4.37;;;3.97;;
10126;SDS011;13080;42.608;23.362;2022-09-03T06:28:12;5.03;;;3.93;;
10126;SDS011;13080;42.608;23.362;2022-09-03T06:30:38;3.63;;;3.33;;
10126;SDS011;13080;42.608;23.362;2022-09-03T06:33:06;4.63;;;4.07;;
10126;SDS011;13080;42.608;23.362;2022-09-03T06:35:34;4.30;;;3.90;;
10126;SDS011;13080;42.608;23.362;2022-09-03T06:38:01;4.13;;;3.73;;
10126;SDS011;13080;42.608;23.362;2022-09-03T06:40:28;4.10;;;3.70;;
10126;SDS011;13080;42.608;23.362;2022-09-03T06:42:56;6.17;;;4.70;;
10126;SDS011;13080;42.608;23.362;2022-09-03T06:45:26;4.53;;;4.10;;
10126;SDS011;13080;42.608;23.362;2022-09-03T06:47:53;5.07;;;4.03;;
10126;SDS011;13080;42.608;23.362;2022-09-03T06:50:19;4.67;;;4.17;;
10126;SDS011;13080;42.608;23.362;2022-09-03T06:52:50;5.00;;;4.50;;
10126;SDS011;13080;42.608;23.362;2022-09-03T06:55:19;4.93;;;4.27;;
10126;SDS011;13080;42.608;23.362;2022-09-03T06:57:45;6.03;;;4.43;;
10126;SDS011;13080;42.608;23.362;2022-09-03T07:00:12;7.37;;;4.83;;
10126;SDS011;13080;42.608;23.362;2022-09-03T07:02:39;8.03;;;3.87;;
10126;SDS011;13080;42.608;23.362;2022-09-03T07:05:06;6.17;;;4.47;;
10126;SDS011;13080;42.608;23.362;2022-09-03T07:07:33;5.00;;;3.50;;
10126;SDS011;13080;42.608;23.362;2022-09-03T07:10:01;6.60;;;4.20;;
10126;SDS011;13080;42.608;23.362;2022-09-03T07:12:27;7.30;;;4.70;;
10126;SDS011;13080;42.608;23.362;2022-09-03T07:14:54;6.73;;;5.23;;
10126;SDS011;13080;42.608;23.362;2022-09-03T07:17:20;4.97;;;4.47;;
10126;SDS011;13080;42.608;23.362;2022-09-03T07:19:47;6.20;;;4.47;;
10126;SDS011;13080;42.608;23.362;2022-09-03T07:22:13;4.95;;;4.45;;
10126;SDS011;13080;42.608;23.362;2022-09-03T07:24:40;5.53;;;4.82;;
10126;SDS011;13080;42.608;23.362;2022-09-03T07:27:19;5.75;;;4.45;;
10126;SDS011;13080;42.608;23.362;2022-09-03T07:29:46;4.40;;;4.00;;
10126;SDS011;13080;42.608;23.362;2022-09-03T07:32:12;4.72;;;4.25;;
10126;SDS011;13080;42.608;23.362;2022-09-03T07:34:39;4.75;;;4.22;;
10126;SDS011;13080;42.608;23.362;2022-09-03T07:37:05;4.95;;;4.45;;
10126;SDS011;13080;42.608;23.362;2022-09-03T07:39:32;8.93;;;4.72;;
10126;SDS011;13080;42.608;23.362;2022-09-03T07:41:58;4.15;;;3.75;;
10126;SDS011;13080;42.608;23.362;2022-09-03T07:44:26;5.25;;;4.70;;
10126;SDS011;13080;42.608;23.362;2022-09-03T07:46:53;5.20;;;4.65;;
10126;SDS011;13080;42.608;23.362;2022-09-03T07:49:20;5.40;;;4.85;;
10126;SDS011;13080;42.608;23.362;2022-09-03T07:51:48;5.35;;;4.85;;
10126;SDS011;13080;42.608;23.362;2022-09-03T07:54:18;5.60;;;4.72;;
10126;SDS011;13080;42.608;23.362;2022-09-03T07:56:45;5.82;;;5.20;;
10126;SDS011;13080;42.608;23.362;2022-09-03T07:59:12;4.80;;;4.30;;
10126;SDS011;13080;42.608;23.362;2022-09-03T08:01:40;4.30;;;3.80;;
10126;SDS011;13080;42.608;23.362;2022-09-03T08:04:06;4.10;;;3.70;;
10126;SDS011;13080;42.608;23.362;2022-09-03T08:06:33;3.65;;;3.35;;
10126;SDS011;13080;42.608;23.362;2022-09-03T08:09:15;3.80;;;3.45;;
10126;SDS011;13080;42.608;23.362;2022-09-03T08:17:50;4.82;;;3.75;;
10126;SDS011;13080;42.608;23.362;2022-09-03T08:20:16;5.82;;;4.00;;
10126;SDS011;13080;42.608;23.362;2022-09-03T08:25:27;5.63;;;4.20;;
10126;SDS011;13080;42.608;23.362;2022-09-03T08:27:56;4.10;;;3.70;;
10126;SDS011;13080;42.608;23.362;2022-09-03T08:30:23;4.07;;;3.70;;
10126;SDS011;13080;42.608;23.362;2022-09-03T08:32:52;4.07;;;3.67;;
10126;SDS011;13080;42.608;23.362;2022-09-03T08:35:18;5.30;;;3.45;;
10126;SDS011;13080;42.608;23.362;2022-09-03T08:37:45;4.55;;;4.00;;
10126;SDS011;13080;42.608;23.362;2022-09-03T08:40:13;4.00;;;3.60;;
10126;SDS011;13080;42.608;23.362;2022-09-03T08:42:42;3.95;;;3.58;;
10126;SDS011;13080;42.608;23.362;2022-09-03T08:45:12;4.65;;;4.03;;
10126;SDS011;13080;42.608;23.362;2022-09-03T08:47:42;4.22;;;3.83;;
10126;SDS011;13080;42.608;23.362;2022-09-03T08:50:21;4.22;;;3.83;;
10126;SDS011;13080;42.608;23.362;2022-09-03T08:52:49;3.72;;;3.42;;
10126;SDS011;13080;42.608;23.362;2022-09-03T08:55:19;4.00;;;3.60;;
10126;SDS011;13080;42.608;23.362;2022-09-03T08:57:48;4.40;;;4.00;;
10126;SDS011;13080;42.608;23.362;2022-09-03T09:00:18;4.35;;;3.95;;
10126;SDS011;13080;42.608;23.362;2022-09-03T09:02:48;4.68;;;3.60;;
10126;SDS011;13080;42.608;23.362;2022-09-03T09:05:23;4.55;;;4.15;;
10126;SDS011;13080;42.608;23.362;2022-09-03T09:07:52;4.28;;;3.53;;
10126;SDS011;13080;42.608;23.362;2022-09-03T09:10:22;4.18;;;3.88;;
10126;SDS011;13080;42.608;23.362;2022-09-03T09:13:09;4.43;;;4.03;;
10126;SDS011;13080;42.608;23.362;2022-09-03T09:15:46;4.68;;;4.28;;
10126;SDS011;13080;42.608;23.362;2022-09-03T09:18:15;4.40;;;4.00;;
10126;SDS011;13080;42.608;23.362;2022-09-03T09:20:56;4.75;;;4.25;;
10126;SDS011;13080;42.608;23.362;2022-09-03T09:23:34;5.00;;;4.47;;
10126;SDS011;13080;42.608;23.362;2022-09-03T09:29:03;4.60;;;4.20;;
10126;SDS011;13080;42.608;23.362;2022-09-03T09:31:31;4.85;;;4.32;;
10126;SDS011;13080;42.608;23.362;2022-09-03T09:34:01;4.63;;;4.20;;
10126;SDS011;13080;42.608;23.362;2022-09-03T09:39:54;5.32;;;4.82;;
10126;SDS011;13080;42.608;23.362;2022-09-03T09:42:21;7.18;;;4.47;;
10126;SDS011;13080;42.608;23.362;2022-09-03T09:44:47;5.65;;;4.72;;
10126;SDS011;13080;42.608;23.362;2022-09-03T09:56:43;3.80;;;3.50;;
10126;SDS011;13080;42.608;23.362;2022-09-03T09:59:35;4.05;;;3.75;;
10126;SDS011;13080;42.608;23.362;2022-09-03T10:02:07;4.53;;;4.10;;
10126;SDS011;13080;42.608;23.362;2022-09-03T10:04:48;4.22;;;3.90;;
10126;SDS011;13080;42.608;23.362;2022-09-03T10:07:24;4.90;;;4.40;;
10126;SDS011;13080;42.608;23.362;2022-09-03T10:10:00;4.68;;;4.28;;
10126;SDS011;13080;42.608;23.362;2022-09-03T10:23:14;5.18;;;4.68;;
10126;SDS011;13080;42.608;23.362;2022-09-03T10:25:53;4.40;;;4.00;;
10126;SDS011;13080;42.608;23.362;2022-09-03T10:28:21;5.20;;;4.70;;
10126;SDS011;13080;42.608;23.362;2022-09-03T10:33:51;4.80;;;4.40;;
10126;SDS011;13080;42.608;23.362;2022-09-03T10:36:24;4.93;;;4.45;;
10126;SDS011;13080;42.608;23.362;2022-09-03T10:38:58;4.63;;;3.85;;
10126;SDS011;13080;42.608;23.362;2022-09-03T10:41:32;4.78;;;4.10;;
10126;SDS011;13080;42.608;23.362;2022-09-03T10:44:18;4.35;;;3.95;;
10126;SDS011;13080;42.608;23.362;2022-09-03T10:46:50;4.20;;;3.80;;
10126;SDS011;13080;42.608;23.362;2022-09-03T10:49:23;7.72;;;4.18;;
10126;SDS011;13080;42.608;23.362;2022-09-03T10:51:56;6.82;;;3.83;;
10126;SDS011;13080;42.608;23.362;2022-09-03T10:54:34;5.88;;;4.03;;
10126;SDS011;13080;42.608;23.362;2022-09-03T10:57:17;4.40;;;4.00;;
10126;SDS011;13080;42.608;23.362;2022-09-03T11:00:03;4.15;;;3.80;;
10126;SDS011;13080;42.608;23.362;2022-09-03T11:11:22;4.47;;;4.07;;
10126;SDS011;13080;42.608;23.362;2022-09-03T11:13:52;4.78;;;4.38;;
10126;SDS011;13080;42.608;23.362;2022-09-03T11:16:21;4.68;;;4.28;;
10126;SDS011;13080;42.608;23.362;2022-09-03T11:18:50;4.35;;;4.00;;
10126;SDS011;13080;42.608;23.362;2022-09-03T11:21:21;5.18;;;4.13;;
10126;SDS011;13080;42.608;23.362;2022-09-03T11:23:52;3.65;;;3.35;;
10126;SDS011;13080;42.608;23.362;2022-09-03T11:26:19;4.80;;;4.32;;
10126;SDS011;13080;42.608;23.362;2022-09-03T11:28:50;3.88;;;3.50;;
10126;SDS011;13080;42.608;23.362;2022-09-03T11:31:22;3.72;;;3.33;;
10126;SDS011;13080;42.608;23.362;2022-09-03T11:33:50;4.18;;;3.80;;
10126;SDS011;13080;42.608;23.362;2022-09-03T11:36:22;3.38;;;3.10;;
10126;SDS011;13080;42.608;23.362;2022-09-03T11:38:50;7.53;;;3.92;;
10126;SDS011;13080;42.608;23.362;2022-09-03T11:41:22;4.70;;;3.67;;
10126;SDS011;13080;42.608;23.362;2022-09-03T11:43:51;4.18;;;3.88;;
10126;SDS011;13080;42.608;23.362;2022-09-03T11:46:26;4.30;;;3.90;;
10126;SDS011;13080;42.608;23.362;2022-09-03T11:48:55;4.03;;;3.72;;
10126;SDS011;13080;42.608;23.362;2022-09-03T11:51:30;5.13;;;4.20;;
10126;SDS011;13080;42.608;23.362;2022-09-03T11:56:47;4.20;;;3.80;;
10126;SDS011;13080;42.608;23.362;2022-09-03T11:59:17;4.57;;;3.80;;
10126;SDS011;13080;42.608;23.362;2022-09-03T12:01:46;6.32;;;4.10;;
10126;SDS011;13080;42.608;23.362;2022-09-03T12:04:17;6.25;;;3.50;;
10126;SDS011;13080;42.608;23.362;2022-09-03T12:06:48;5.00;;;3.67;;
10126;SDS011;13080;42.608;23.362;2022-09-03T12:09:31;3.85;;;3.45;;
10126;SDS011;13080;42.608;23.362;2022-09-03T12:12:03;3.33;;;3.03;;
10126;SDS011;13080;42.608;23.362;2022-09-03T12:14:38;3.63;;;3.33;;
10126;SDS011;13080;42.608;23.362;2022-09-03T12:17:11;3.30;;;2.80;;
10126;SDS011;13080;42.608;23.362;2022-09-03T12:19:39;4.00;;;3.60;;
10126;SDS011;13080;42.608;23.362;2022-09-03T12:22:11;5.85;;;4.00;;
10126;SDS011;13080;42.608;23.362;2022-09-03T12:24:39;5.20;;;3.80;;
10126;SDS011;13080;42.608;23.362;2022-09-03T12:27:07;5.07;;;3.53;;
10126;SDS011;13080;42.608;23.362;2022-09-03T12:29:34;4.15;;;3.75;;
10126;SDS011;13080;42.608;23.362;2022-09-03T12:32:06;3.80;;;3.50;;
10126;SDS011;13080;42.608;23.362;2022-09-03T12:34:33;3.97;;;3.67;;
10126;SDS011;13080;42.608;23.362;2022-09-03T12:37:20;4.95;;;3.50;;
10126;SDS011;13080;42.608;23.362;2022-09-03T12:39:51;3.60;;;3.30;;
10126;SDS011;13080;42.608;23.362;2022-09-03T12:42:19;3.55;;;3.20;;
10126;SDS011;13080;42.608;23.362;2022-09-03T12:44:47;3.70;;;3.40;;
10126;SDS011;13080;42.608;23.362;2022-09-03T12:50:05;4.75;;;3.22;;
10126;SDS011;13080;42.608;23.362;2022-09-03T12:52:32;2.70;;;2.50;;
10126;SDS011;13080;42.608;23.362;2022-09-03T12:55:00;5.63;;;3.50;;
10126;SDS011;13080;42.608;23.362;2022-09-03T12:57:30;3.63;;;3.33;;
10126;SDS011;13080;42.608;23.362;2022-09-03T12:59:59;4.80;;;3.65;;
10126;SDS011;13080;42.608;23.362;2022-09-03T13:02:28;4.43;;;4.03;;
10126;SDS011;13080;42.608;23.362;2022-09-03T13:04:57;3.65;;;3.35;;
10126;SDS011;13080;42.608;23.362;2022-09-03T13:07:26;4.20;;;3.90;;
10126;SDS011;13080;42.608;23.362;2022-09-03T13:09:59;3.95;;;3.40;;
10126;SDS011;13080;42.608;23.362;2022-09-03T13:12:28;4.07;;;3.67;;
10126;SDS011;13080;42.608;23.362;2022-09-03T13:14:55;4.20;;;3.75;;
10126;SDS011;13080;42.608;23.362;2022-09-03T13:17:25;5.35;;;3.53;;
10126;SDS011;13080;42.608;23.362;2022-09-03T13:20:02;4.28;;;3.80;;
10126;SDS011;13080;42.608;23.362;2022-09-03T13:22:38;6.40;;;3.75;;
10126;SDS011;13080;42.608;23.362;2022-09-03T13:25:11;4.55;;;3.90;;
10126;SDS011;13080;42.608;23.362;2022-09-03T13:27:38;4.82;;;3.50;;
10126;SDS011;13080;42.608;23.362;2022-09-03T13:30:10;4.95;;;3.70;;
10126;SDS011;13080;42.608;23.362;2022-09-03T13:32:41;4.15;;;3.75;;
10126;SDS011;13080;42.608;23.362;2022-09-03T13:35:11;7.88;;;3.65;;
10126;SDS011;13080;42.608;23.362;2022-09-03T13:37:41;3.40;;;3.10;;
10126;SDS011;13080;42.608;23.362;2022-09-03T13:40:13;3.78;;;3.47;;
10126;SDS011;13080;42.608;23.362;2022-09-03T13:42:42;4.07;;;3.70;;
10126;SDS011;13080;42.608;23.362;2022-09-03T13:45:12;4.60;;;2.75;;
10126;SDS011;13080;42.608;23.362;2022-09-03T13:47:43;3.70;;;3.40;;
10126;SDS011;13080;42.608;23.362;2022-09-03T13:50:24;5.60;;;3.20;;
10126;SDS011;13080;42.608;23.362;2022-09-03T13:52:55;11.50;;;3.47;;
10126;SDS011;13080;42.608;23.362;2022-09-03T13:55:25;3.42;;;3.13;;
10126;SDS011;13080;42.608;23.362;2022-09-03T13:57:53;5.45;;;2.85;;
10126;SDS011;13080;42.608;23.362;2022-09-03T14:00:22;3.33;;;3.03;;
10126;SDS011;13080;42.608;23.362;2022-09-03T14:02:50;3.65;;;3.35;;
10126;SDS011;13080;42.608;23.362;2022-09-03T14:05:21;5.55;;;3.20;;
10126;SDS011;13080;42.608;23.362;2022-09-03T14:07:55;3.38;;;3.08;;
10126;SDS011;13080;42.608;23.362;2022-09-03T14:10:29;4.53;;;3.50;;
10126;SDS011;13080;42.608;23.362;2022-09-03T14:13:05;3.80;;;3.33;;
10126;SDS011;13080;42.608;23.362;2022-09-03T14:15:34;2.85;;;2.65;;
10126;SDS011;13080;42.608;23.362;2022-09-03T14:18:12;3.40;;;3.10;;
10126;SDS011;13080;42.608;23.362;2022-09-03T14:20:48;3.28;;;2.97;;
10126;SDS011;13080;42.608;23.362;2022-09-03T14:23:39;3.13;;;2.83;;
10126;SDS011;13080;42.608;23.362;2022-09-03T14:26:14;3.60;;;2.88;;
10126;SDS011;13080;42.608;23.362;2022-09-03T14:28:45;3.53;;;3.03;;
10126;SDS011;13080;42.608;23.362;2022-09-03T14:31:18;4.15;;;3.20;;
10126;SDS011;13080;42.608;23.362;2022-09-03T14:33:50;3.63;;;3.33;;
10126;SDS011;13080;42.608;23.362;2022-09-03T14:36:21;4.15;;;3.25;;
10126;SDS011;13080;42.608;23.362;2022-09-03T14:41:43;3.17;;;2.90;;
10126;SDS011;13080;42.608;23.362;2022-09-03T14:47:21;5.53;;;3.40;;
10126;SDS011;13080;42.608;23.362;2022-09-03T14:50:01;3.78;;;3.47;;
10126;SDS011;13080;42.608;23.362;2022-09-03T14:52:38;4.93;;;3.40;;
10126;SDS011;13080;42.608;23.362;2022-09-03T14:55:11;4.00;;;3.60;;
10126;SDS011;13080;42.608;23.362;2022-09-03T14:57:47;5.45;;;3.42;;
10126;SDS011;13080;42.608;23.362;2022-09-03T15:00:20;3.47;;;3.13;;
10126;SDS011;13080;42.608;23.362;2022-09-03T15:02:51;4.00;;;3.67;;
10126;SDS011;13080;42.608;23.362;2022-09-03T15:05:26;6.78;;;3.55;;
10126;SDS011;13080;42.608;23.362;2022-09-03T15:07:57;3.30;;;3.03;;
10126;SDS011;13080;42.608;23.362;2022-09-03T15:10:26;3.95;;;3.65;;
10126;SDS011;13080;42.608;23.362;2022-09-03T15:12:58;3.80;;;3.47;;
10126;SDS011;13080;42.608;23.362;2022-09-03T15:15:28;4.13;;;3.28;;
10126;SDS011;13080;42.608;23.362;2022-09-03T15:18:01;4.10;;;3.15;;
10126;SDS011;13080;42.608;23.362;2022-09-03T15:20:41;5.95;;;3.38;;
10126;SDS011;13080;42.608;23.362;2022-09-03T15:28:51;4.45;;;2.90;;
10126;SDS011;13080;42.608;23.362;2022-09-03T15:31:21;3.05;;;2.70;;
10126;SDS011;13080;42.608;23.362;2022-09-03T15:33:50;4.40;;;2.72;;
10126;SDS011;13080;42.608;23.362;2022-09-03T15:36:18;3.30;;;3.00;;
10126;SDS011;13080;42.608;23.362;2022-09-03T15:38:50;3.22;;;2.92;;
10126;SDS011;13080;42.608;23.362;2022-09-03T15:41:23;6.65;;;2.92;;
10126;SDS011;13080;42.608;23.362;2022-09-03T15:43:51;3.35;;;3.05;;
10126;SDS011;13080;42.608;23.362;2022-09-03T15:46:34;3.90;;;3.50;;
10126;SDS011;13080;42.608;23.362;2022-09-03T15:49:07;3.85;;;3.40;;
10126;SDS011;13080;42.608;23.362;2022-09-03T15:51:40;4.28;;;3.88;;
10126;SDS011;13080;42.608;23.362;2022-09-03T15:54:09;3.85;;;3.33;;
10126;SDS011;13080;42.608;23.362;2022-09-03T15:56:38;5.82;;;3.65;;